createdAt,value
2019-05-29T00:04:49.149Z,13.80
2019-05-29T00:09:54.738Z,13.80
2019-05-29T00:15:00.327Z,13.80
2019-05-29T00:20:06.434Z,13.80
2019-05-29T00:25:12.493Z,13.90
2019-05-29T00:30:18.198Z,13.90
2019-05-29T00:35:23.792Z,13.80
2019-05-29T00:40:29.349Z,13.70
2019-05-29T00:45:34.942Z,13.80
2019-05-29T00:50:40.521Z,13.80
2019-05-29T00:55:46.191Z,13.70
2019-05-29T01:00:51.777Z,13.70
2019-05-29T01:05:57.328Z,13.70
2019-05-29T01:11:03.008Z,13.80
2019-05-29T01:16:08.608Z,13.70
2019-05-29T01:21:14.352Z,13.70
2019-05-29T01:26:20.894Z,13.60
2019-05-29T01:31:26.486Z,13.60
2019-05-29T01:36:32.057Z,13.60
2019-05-29T01:41:37.735Z,13.60
2019-05-29T01:46:43.386Z,13.60
2019-05-29T01:51:48.966Z,13.60
2019-05-29T01:56:54.631Z,13.50
2019-05-29T02:02:00.250Z,13.60
2019-05-29T02:07:06.083Z,13.70
2019-05-29T02:12:11.639Z,13.70
2019-05-29T02:17:17.801Z,13.80
2019-05-29T02:22:23.510Z,13.80
2019-05-29T02:27:29.098Z,13.80
2019-05-29T02:32:34.604Z,13.90
2019-05-29T02:37:40.131Z,13.90
2019-05-29T02:42:45.830Z,13.90
2019-05-29T02:47:52.641Z,14.00
2019-05-29T02:52:58.236Z,13.80
2019-05-29T02:58:03.863Z,13.60
2019-05-29T03:03:09.530Z,13.80
2019-05-29T03:08:15.066Z,13.90
2019-05-29T03:13:20.823Z,13.80
2019-05-29T03:18:27.926Z,13.80
2019-05-29T03:23:35.955Z,13.70
2019-05-29T03:28:41.115Z,13.60
2019-05-29T03:33:49.807Z,13.50
2019-05-29T03:38:54.191Z,13.40
2019-05-29T03:44:00.361Z,13.50
2019-05-29T03:49:06.174Z,13.50
2019-05-29T03:54:11.752Z,13.40
2019-05-29T03:59:17.604Z,13.40
2019-05-29T04:04:23.379Z,13.30
2019-05-29T04:09:29.169Z,13.30
2019-05-29T04:14:35.696Z,13.10
2019-05-29T04:19:43.104Z,13.10
2019-05-29T04:24:51.055Z,13.10
2019-05-29T04:30:00.335Z,13.10
2019-05-29T04:35:06.259Z,13.20
2019-05-29T04:40:12.390Z,13.20
2019-05-29T04:45:18.033Z,13.20
2019-05-29T04:50:24.983Z,13.10
2019-05-29T04:55:30.767Z,13.10
2019-05-29T05:00:37.297Z,13.10
2019-05-29T05:05:43.014Z,13.10
2019-05-29T05:10:48.574Z,13.20
2019-05-29T05:15:56.179Z,13.20
2019-05-29T05:21:01.834Z,13.30
2019-05-29T05:26:07.382Z,13.40
2019-05-29T05:31:12.947Z,13.40
2019-05-29T05:36:18.646Z,13.40
2019-05-29T05:41:24.175Z,13.30
2019-05-29T05:46:30.934Z,13.20
2019-05-29T05:51:40.433Z,13.30
2019-05-29T05:56:43.872Z,13.30
2019-05-29T06:01:49.564Z,13.40
2019-05-29T06:06:55.048Z,13.40
2019-05-29T06:12:00.578Z,13.50
2019-05-29T06:17:06.233Z,13.60
2019-05-29T06:22:11.933Z,13.70
2019-05-29T06:27:17.675Z,13.80
2019-05-29T06:32:23.294Z,13.70
2019-05-29T06:37:28.854Z,13.80
2019-05-29T06:42:35.654Z,13.80
2019-05-29T06:47:42.777Z,13.90
2019-05-29T06:52:48.403Z,13.90
2019-05-29T06:57:54.168Z,13.90
2019-05-29T07:02:59.716Z,14.10
2019-05-29T07:08:18.509Z,14.10
2019-05-29T07:13:12.866Z,14.10
2019-05-29T07:18:19.575Z,14.10
2019-05-29T07:23:25.288Z,14.10
2019-05-29T07:28:31.062Z,14.20
2019-05-29T07:33:37.035Z,14.40
2019-05-29T07:38:48.841Z,14.50
2019-05-29T07:43:49.898Z,14.60
2019-05-29T07:48:55.536Z,14.60
2019-05-29T07:54:01.248Z,14.80
2019-05-29T07:59:06.921Z,14.90
2019-05-29T08:04:13.094Z,14.80
2019-05-29T08:09:18.775Z,14.80
2019-05-29T08:14:24.539Z,14.90
2019-05-29T08:19:31.588Z,14.90
2019-05-29T08:24:37.303Z,14.90
2019-05-29T08:29:42.904Z,14.90
2019-05-29T08:34:49.091Z,14.90
2019-05-29T08:39:54.835Z,15.00
2019-05-29T08:45:00.610Z,15.20
2019-05-29T08:50:18.175Z,15.30
2019-05-29T08:55:15.601Z,15.40
2019-05-29T09:00:21.486Z,15.50
2019-05-29T09:05:27.234Z,15.70
2019-05-29T09:10:32.850Z,15.70
2019-05-29T09:15:38.532Z,15.60
2019-05-29T09:21:02.037Z,15.60
2019-05-29T09:25:51.576Z,15.80
2019-05-29T09:30:57.357Z,15.90
2019-05-29T09:36:02.929Z,15.90
2019-05-29T09:41:08.623Z,15.90
2019-05-29T09:46:15.200Z,16.00
2019-05-29T09:51:22.045Z,16.10
2019-05-29T09:56:28.154Z,16.20
2019-05-29T10:01:33.743Z,16.20
2019-05-29T10:06:39.425Z,16.10
2019-05-29T10:11:45.101Z,16.10
2019-05-29T10:16:50.734Z,16.10
2019-05-29T10:21:57.866Z,16.10
2019-05-29T10:27:04.961Z,16.00
2019-05-29T10:32:10.942Z,16.00
2019-05-29T10:37:18.286Z,16.10
2019-05-29T10:42:23.765Z,16.00
2019-05-29T10:47:29.459Z,16.10
2019-05-29T10:52:35.139Z,16.20
2019-05-29T10:57:42.056Z,16.40
2019-05-29T11:02:48.131Z,16.40
2019-05-29T11:07:55.984Z,16.60
2019-05-29T11:13:01.786Z,16.60
2019-05-29T11:18:07.485Z,16.70
2019-05-29T11:23:13.061Z,16.70
2019-05-29T11:28:18.674Z,16.70
2019-05-29T11:33:24.435Z,16.70
2019-05-29T11:38:30.090Z,16.70
2019-05-29T11:43:35.724Z,16.80
2019-05-29T11:48:41.390Z,16.60
2019-05-29T11:53:47.017Z,16.50
2019-05-29T11:58:54.793Z,16.40
2019-05-29T12:04:24.276Z,16.40
2019-05-29T12:09:09.647Z,16.30
2019-05-29T12:14:15.358Z,16.00
2019-05-29T12:19:20.927Z,16.00
2019-05-29T12:24:26.604Z,16.10
2019-05-29T12:29:32.208Z,15.90
2019-05-29T12:34:45.143Z,15.60
2019-05-29T12:39:45.240Z,15.30
2019-05-29T12:44:50.837Z,15.40
2019-05-29T12:49:57.540Z,15.50
2019-05-29T12:55:04.250Z,15.20
2019-05-29T13:00:10.864Z,15.10
2019-05-29T13:05:20.560Z,15.10
2019-05-29T13:10:30.778Z,15.00
2019-05-29T13:15:32.504Z,14.80
2019-05-29T13:20:38.328Z,14.70
2019-05-29T13:25:43.942Z,14.70
2019-05-29T13:30:49.564Z,14.70
2019-05-29T13:35:56.282Z,14.60
2019-05-29T13:41:02.556Z,14.30
2019-05-29T13:46:08.382Z,14.30
2019-05-29T13:51:13.998Z,14.10
2019-05-29T13:56:23.882Z,14.00
2019-05-29T14:01:27.029Z,13.90
2019-05-29T14:06:32.741Z,13.70
2019-05-29T14:11:38.515Z,13.60
2019-05-29T14:16:44.335Z,13.70
2019-05-29T14:21:49.854Z,13.70
2019-05-29T14:26:55.596Z,13.70
2019-05-29T14:32:01.139Z,13.50
2019-05-29T14:37:07.962Z,13.50
2019-05-29T14:42:13.802Z,13.60
2019-05-29T14:47:19.503Z,13.70
2019-05-29T14:52:25.182Z,13.60
2019-05-29T14:57:30.768Z,13.60
2019-05-29T15:02:36.429Z,13.40
2019-05-29T15:07:42.117Z,13.30
2019-05-29T15:12:47.746Z,13.30
2019-05-29T15:17:53.325Z,13.20
2019-05-29T15:22:59.199Z,13.20
2019-05-29T15:28:06.039Z,13.10
2019-05-29T15:33:12.686Z,13.30
2019-05-29T15:38:18.349Z,13.20
2019-05-29T15:43:23.927Z,13.20
2019-05-29T15:48:29.612Z,13.20
2019-05-29T15:53:35.371Z,13.10
2019-05-29T15:58:41.066Z,13.10
2019-05-29T16:03:46.734Z,13.20
2019-05-29T16:08:52.293Z,13.20
2019-05-29T16:13:57.805Z,13.20
2019-05-29T16:19:03.370Z,13.40
2019-05-29T16:24:09.054Z,13.30
2019-05-29T16:29:17.351Z,13.30
2019-05-29T16:34:22.992Z,13.40
2019-05-29T16:39:28.708Z,13.30
2019-05-29T16:44:34.354Z,13.40
2019-05-29T16:49:40.041Z,13.30
2019-05-29T16:54:45.718Z,13.30
2019-05-29T16:59:51.332Z,13.30
2019-05-29T17:04:58.366Z,13.40
2019-05-29T17:10:04.614Z,13.40
2019-05-29T17:15:12.222Z,13.60
2019-05-29T17:20:22.835Z,13.80
2019-05-29T17:25:28.564Z,13.70
2019-05-29T17:30:34.455Z,13.70
2019-05-29T17:35:40.100Z,13.60
2019-05-29T17:40:45.870Z,13.70
2019-05-29T17:45:51.523Z,13.70
2019-05-29T17:50:57.116Z,13.70
2019-05-29T17:56:02.780Z,13.80
2019-05-29T18:01:08.531Z,13.80
2019-05-29T18:06:14.147Z,13.80
2019-05-29T18:11:21.043Z,13.80
2019-05-29T18:16:27.744Z,13.90
2019-05-29T18:21:33.531Z,13.90
2019-05-29T18:26:46.762Z,13.90
2019-05-29T18:31:46.506Z,14.10
2019-05-29T18:36:52.209Z,14.10
2019-05-29T18:41:57.823Z,14.10
2019-05-29T18:47:03.486Z,14.20
2019-05-29T18:52:09.149Z,14.20
2019-05-29T18:57:16.113Z,14.30
2019-05-29T19:02:23.330Z,14.30
2019-05-29T19:07:29.755Z,14.40
2019-05-29T19:12:35.467Z,14.50
2019-05-29T19:17:41.327Z,14.50
2019-05-29T19:22:47.112Z,14.60
2019-05-29T19:27:53.107Z,14.60
2019-05-29T19:32:58.842Z,14.70
2019-05-29T19:38:04.630Z,14.70
2019-05-29T19:43:10.276Z,14.70
2019-05-29T19:48:15.931Z,14.70
2019-05-29T19:53:24.354Z,14.70
2019-05-29T19:58:29.794Z,14.80
2019-05-29T20:03:36.687Z,14.80
2019-05-29T20:08:42.607Z,14.90
2019-05-29T20:13:48.199Z,14.90
2019-05-29T20:18:53.809Z,14.90
2019-05-29T20:23:59.528Z,14.90
2019-05-29T20:29:05.535Z,15.00
2019-05-29T20:34:11.099Z,15.00
2019-05-29T20:39:16.907Z,15.00
2019-05-29T20:44:22.604Z,15.00
2019-05-29T20:49:28.375Z,15.10
2019-05-29T20:54:33.995Z,15.10
2019-05-29T20:59:40.575Z,15.10
2019-05-29T21:04:46.354Z,15.10
2019-05-29T21:09:52.289Z,15.20
2019-05-29T21:14:58.040Z,15.20
2019-05-29T21:20:03.883Z,15.30
2019-05-29T21:25:14.913Z,15.40
2019-05-29T21:30:22.449Z,15.30
2019-05-29T21:35:28.335Z,15.30
2019-05-29T21:40:34.059Z,15.30
2019-05-29T21:45:40.956Z,15.30
2019-05-29T21:50:47.429Z,15.30
2019-05-29T21:55:53.320Z,15.30
2019-05-29T22:00:58.965Z,15.30
2019-05-29T22:06:04.719Z,15.40
2019-05-29T22:11:10.410Z,15.40
2019-05-29T22:16:15.980Z,15.40
2019-05-29T22:21:21.687Z,15.30
2019-05-29T22:26:27.456Z,15.30
2019-05-29T22:31:33.225Z,15.30
2019-05-29T22:36:38.923Z,15.40
2019-05-29T22:41:44.538Z,15.40
2019-05-29T22:46:51.555Z,15.40
2019-05-29T22:51:57.809Z,15.40
2019-05-29T22:57:04.051Z,15.50
2019-05-29T23:02:10.164Z,15.50
2019-05-29T23:07:15.821Z,15.50
2019-05-29T23:12:21.424Z,15.50
2019-05-29T23:17:27.225Z,15.50
2019-05-29T23:22:32.831Z,15.50
2019-05-29T23:27:38.426Z,15.50
2019-05-29T23:32:44.032Z,15.50
2019-05-29T23:37:49.625Z,15.50
2019-05-29T23:42:55.428Z,15.50
2019-05-29T23:48:01.827Z,15.50
2019-05-29T23:53:07.482Z,15.60
2019-05-29T23:58:13.073Z,15.50
